»·PEaware :: ASU1 KSAN-KSNA

ASU1 :: KSAN-KSNA

FLIGHT INFORMATION

Flight Status: Arrived
Operator:
Arizona State University
More flights by this operator :: More flights under this callsign
Pilot: Arizona State University (3812)
Aircraft: BEECH AIRCRAFT SUPER KING AIR COMMUTER
(BE20)
More flights by this aircraft type
Origin: KSAN San Diego Intl-Lindbergh
United States
Destination: KSNA John Wayne-Orange Co
United States
More flights between these airports :: More routes between these airports
Route: +PEBLE6 SLI
File this flight plan on PilotEdge
Remarks: Call Sign is Sundevil 1. Request ILS 20R at KSNA. Will supply our own weather of 300 / 2.
Altitude:
(Current/Filed)
10,000ft
Speed:
(Current/Filed)
240kts
Departed: 27-Nov-17 09:47 AM
Arrived: 27-Nov-17 10:22 AM
Distance/Time
Traveled:
66nm/0:35
Distance/Time
To Go:
Arrived

Flight Plot

Page will automatically refresh every two minutes.


Map Options




Map Legend


Flown Route
Filed Route
Departure Airport
Arrival Airport
Navaid (VOR, NDB)
Fix

Horizontal Profiles

Position Reports

Time Latitude Longitude Heading Altitude Ground
Speed
27-Nov-17 09:24 32.730388 -117.190519 305 19ft 0kts
27-Nov-17 09:31 32.730388 -117.190519 305 19ft 3kts
27-Nov-17 09:32 32.730388 -117.190519 305 19ft 3kts
27-Nov-17 09:33 32.730388 -117.190519 305 19ft 3kts
27-Nov-17 09:34 32.730388 -117.190519 305 19ft 3kts
27-Nov-17 09:35 32.730388 -117.190519 305 19ft 3kts
27-Nov-17 09:36 32.730388 -117.190519 305 19ft 3kts
27-Nov-17 09:37 32.730388 -117.190519 305 19ft 2kts
27-Nov-17 09:38 32.730388 -117.190519 305 19ft 2kts
27-Nov-17 09:39 32.730388 -117.190519 305 19ft 2kts
27-Nov-17 09:40 32.730388 -117.190519 305 19ft 3kts
27-Nov-17 09:41 32.730388 -117.190519 305 19ft 3kts
27-Nov-17 09:42 32.730388 -117.190519 305 19ft 2kts
27-Nov-17 09:43 32.730388 -117.190519 305 19ft 2kts
27-Nov-17 09:44 32.730388 -117.190519 305 19ft 3kts
27-Nov-17 09:45 32.730388 -117.190519 305 19ft 3kts
27-Nov-17 09:46 32.730455 -117.190594 324 19ft 5kts
27-Nov-17 09:47 32.732636 -117.190001 71 19ft 19kts
27-Nov-17 09:48 32.731009 -117.182902 105 19ft 29kts
27-Nov-17 09:49 32.729640 -117.176381 69 19ft 3kts
27-Nov-17 09:50 32.729640 -117.176381 69 19ft 3kts
27-Nov-17 09:51 32.730291 -117.176153 297 19ft 6kts
27-Nov-17 09:52 32.733636 -117.189099 288 355ft 114kts
27-Nov-17 09:53 32.756515 -117.227927 304 2100ft 176kts
27-Nov-17 09:54 32.788126 -117.280136 303 3588ft 204kts
27-Nov-17 09:55 32.820789 -117.336005 306 5412ft 205kts
27-Nov-17 09:56 32.854524 -117.390991 305 7198ft 204kts
27-Nov-17 09:57 32.889250 -117.447566 306 8148ft 225kts
27-Nov-17 09:58 32.943577 -117.488510 328 8045ft 234kts
27-Nov-17 09:59 32.989423 -117.546558 303 8129ft 234kts
27-Nov-17 10:00 33.029359 -117.609118 309 8019ft 227kts
27-Nov-17 10:01 33.068110 -117.669944 304 8027ft 222kts
27-Nov-17 10:02 33.107936 -117.729472 309 8037ft 222kts
27-Nov-17 10:03 33.145772 -117.789641 300 8037ft 224kts
27-Nov-17 10:04 33.180772 -117.850033 328 8576ft 200kts
27-Nov-17 10:05 33.242120 -117.869792 337 7968ft 233kts
27-Nov-17 10:06 33.303534 -117.897710 337 7988ft 222kts
27-Nov-17 10:07 33.362741 -117.923920 355 7409ft 236kts
27-Nov-17 10:08 33.424140 -117.899558 21 6782ft 218kts
27-Nov-17 10:09 33.478396 -117.873924 20 5957ft 177kts
27-Nov-17 10:10 33.525477 -117.851357 20 5998ft 164kts
27-Nov-17 10:11 33.570581 -117.828203 27 6068ft 167kts
27-Nov-17 10:12 33.616070 -117.803987 20 6012ft 169kts
27-Nov-17 10:13 33.662435 -117.781157 23 5990ft 169kts
27-Nov-17 10:14 33.708135 -117.758256 21 6090ft 166kts
27-Nov-17 10:15 33.753981 -117.734340 21 5996ft 170kts
27-Nov-17 10:16 33.799823 -117.710819 24 6061ft 167kts
27-Nov-17 10:17 33.846567 -117.689486 25 5879ft 171kts
27-Nov-17 10:18 33.892847 -117.669979 330 4684ft 180kts
27-Nov-17 10:19 33.885668 -117.714501 231 3907ft 131kts
27-Nov-17 10:20 33.860840 -117.750778 209 3306ft 143kts
27-Nov-17 10:21 33.828654 -117.773344 205 2960ft 137kts
27-Nov-17 10:22 33.796888 -117.792428 207 2705ft 122kts
27-Nov-17 10:23 33.767669 -117.813668 206 2033ft 121kts
27-Nov-17 10:24 33.736490 -117.830620 206 1326ft 124kts
27-Nov-17 10:25 33.705455 -117.849162 203 632ft 124kts
27-Nov-17 10:26 33.678069 -117.867480 209 60ft 63kts
27-Nov-17 10:27 33.675786 -117.869794 303 60ft 9kts
27-Nov-17 10:28 33.672873 -117.872585 273 60ft 15kts

Navigation Log

Ident Type
1. KSAN Airport
2. MELDY Fix
3. PEBLE Fix
4. SLI Navaid
5. KSNA Airport